Time;durP1;ratioP1;P1;durP2;ratioP2;P2;SDS_P1;SDS_P2;PMS_P1;PMS_P2;Temp;Humidity;BMP_temperature;BMP_pressure;BME280_temperature;BME280_humidity;BME280_pressure;Samples;Min_cycle;Max_cycle;Signal;HPM_P1;HPM_P2
2023/08/24 00:00:25;;;;;;;9.27;7.95;;;;;;;20.81;61.36;96516.53;5053081;28;20045;-68
2023/08/24 00:02:52;;;;;;;8.93;7.65;;;;;;;20.81;61.70;96521.00;5052926;28;20392;-68
2023/08/24 00:05:21;;;;;;;8.15;7.40;;;;;;;20.81;61.46;96519.19;5053025;28;20465;-68
2023/08/24 00:07:49;;;;;;;8.93;8.02;;;;;;;20.77;61.54;96517.72;5052781;28;20087;-68
2023/08/24 00:10:16;;;;;;;7.88;7.07;;;;;;;20.73;61.97;96524.25;5052867;28;20475;-69
2023/08/24 00:12:46;;;;;;;8.50;7.63;;;;;;;20.66;62.34;96515.09;5052917;28;20049;-68
2023/08/24 00:15:13;;;;;;;8.90;8.07;;;;;;;20.59;62.28;96509.44;5052943;28;20055;-69
2023/08/24 00:17:40;;;;;;;9.13;7.00;;;;;;;20.56;62.27;96509.69;5053054;28;20049;-69
2023/08/24 00:20:10;;;;;;;10.60;7.88;;;;;;;20.54;61.89;96508.94;5052700;28;20048;-69
2023/08/24 00:22:39;;;;;;;8.65;7.82;;;;;;;20.54;62.43;96511.59;5052764;28;20049;-68
2023/08/24 00:25:07;;;;;;;8.25;7.47;;;;;;;20.52;62.31;96510.84;5052807;28;20505;-68
2023/08/24 00:27:35;;;;;;;10.07;7.95;;;;;;;20.49;62.46;96503.13;5052809;28;20053;-68
2023/08/24 00:30:06;;;;;;;8.82;7.93;;;;;;;20.43;62.93;96507.97;5052653;28;20083;-68
2023/08/24 00:32:34;;;;;;;12.18;7.63;;;;;;;20.37;62.69;96504.94;5052729;28;20136;-69
2023/08/24 00:35:02;;;;;;;9.98;7.85;;;;;;;20.33;62.76;96507.88;5052706;28;20041;-69
2023/08/24 00:37:29;;;;;;;8.27;7.47;;;;;;;20.39;63.41;96503.03;5053090;28;20116;-69
2023/08/24 00:39:56;;;;;;;8.35;7.55;;;;;;;20.37;63.53;96496.97;5052612;28;20135;-68
2023/08/24 00:42:23;;;;;;;11.55;8.15;;;;;;;20.36;63.51;96497.94;5052570;28;20049;-69
2023/08/24 00:44:50;;;;;;;8.65;7.75;;;;;;;20.38;63.36;96490.72;5052877;28;20045;-69
2023/08/24 00:47:19;;;;;;;10.43;8.00;;;;;;;20.37;63.81;96484.56;5056318;28;20049;-68
2023/08/24 00:49:47;;;;;;;8.80;7.28;;;;;;;20.33;63.67;96499.03;5056599;28;20048;-68
2023/08/24 00:52:14;;;;;;;9.98;7.75;;;;;;;20.33;62.96;96491.94;5056755;28;20045;-69
2023/08/24 00:54:42;;;;;;;9.27;8.00;;;;;;;20.38;63.03;96490.72;5056252;28;20495;-68
2023/08/24 00:57:09;;;;;;;9.15;8.25;;;;;;;20.41;63.25;96491.31;5056188;28;20143;-69
2023/08/24 00:59:37;;;;;;;9.85;7.75;;;;;;;20.38;63.77;96485.41;5056261;28;20045;-68
2023/08/24 01:02:04;;;;;;;10.85;8.25;;;;;;;20.37;63.58;96491.66;5056108;28;20045;-68
2023/08/24 01:04:33;;;;;;;9.68;6.75;;;;;;;20.35;63.90;96488.31;5056103;28;20045;-68
2023/08/24 01:07:00;;;;;;;11.02;8.27;;;;;;;20.38;63.67;96483.56;5056066;28;20098;-68
2023/08/24 01:09:27;;;;;;;10.88;8.45;;;;;;;20.42;64.07;96484.19;5056112;28;20049;-68
2023/08/24 01:12:02;;;;;;;8.93;7.97;;;;;;;20.42;64.04;96487.72;5056024;28;20053;-68
2023/08/24 01:14:41;;;;;;;8.57;7.78;;;;;;;20.40;63.96;96481.66;5055950;28;20041;-68
2023/08/24 01:17:11;;;;;;;9.35;7.60;;;;;;;20.41;64.40;96486.00;5055982;28;20122;-69
2023/08/24 01:19:43;;;;;;;9.95;8.10;;;;;;;20.41;64.60;96486.00;5055589;28;20045;-69
2023/08/24 01:22:25;;;;;;;9.93;7.72;;;;;;;20.41;64.59;96478.03;5055844;28;20122;-69
2023/08/24 01:25:01;;;;;;;9.02;8.13;;;;;;;20.37;64.69;96481.03;5055811;28;20049;-69
2023/08/24 01:27:30;;;;;;;9.00;7.70;;;;;;;20.37;64.57;96478.38;5055683;28;20063;-68
2023/08/24 01:29:58;;;;;;;8.85;7.07;;;;;;;20.37;64.31;96473.06;5055472;28;20053;-69
2023/08/24 01:32:25;;;;;;;10.48;7.30;;;;;;;20.40;64.52;96473.69;5056047;28;20483;-68
2023/08/24 01:34:52;;;;;;;8.90;7.60;;;;;;;20.40;64.84;96465.72;5055704;28;20079;-68
2023/08/24 01:37:19;;;;;;;8.93;8.02;;;;;;;20.37;64.71;96465.97;5055617;28;20403;-68
2023/08/24 01:39:55;;;;;;;10.60;7.47;;;;;;;20.34;64.47;96474.16;5055351;28;20556;-68
2023/08/24 01:42:26;;;;;;;8.48;7.60;;;;;;;20.30;64.79;96462.97;5055635;28;20443;-68
2023/08/24 01:44:59;;;;;;;9.50;8.48;;;;;;;20.27;64.78;96457.03;5055595;28;20059;-68
2023/08/24 01:47:28;;;;;;;8.18;7.45;;;;;;;20.26;64.53;96458.00;5055349;28;20075;-69
2023/08/24 01:49:56;;;;;;;9.13;8.15;;;;;;;20.28;65.07;96456.06;5055093;28;20495;-68
2023/08/24 01:52:25;;;;;;;9.07;7.63;;;;;;;20.29;64.70;96455.13;5055250;28;20057;-68
2023/08/24 01:54:52;;;;;;;10.68;7.18;;;;;;;20.28;64.95;96448.09;5055308;28;20053;-68
2023/08/24 01:57:19;;;;;;;11.27;8.77;;;;;;;20.28;64.49;96448.09;5055043;28;20045;-68
2023/08/24 01:59:46;;;;;;;9.13;8.23;;;;;;;20.29;64.29;96447.16;5055084;28;20061;-69
2023/08/24 02:02:14;;;;;;;9.57;8.32;;;;;;;20.30;64.41;96448.84;5055188;28;20049;-68
2023/08/24 02:04:41;;;;;;;9.27;8.48;;;;;;;20.32;64.04;96453.03;5055133;28;20495;-68
2023/08/24 02:07:08;;;;;;;11.70;7.93;;;;;;;20.32;64.17;96457.53;5055039;28;20041;-68
2023/08/24 02:09:35;;;;;;;9.43;8.43;;;;;;;20.34;64.12;96450.28;5055007;28;20449;-68
2023/08/24 02:12:02;;;;;;;9.52;7.95;;;;;;;20.28;64.40;96446.28;5054671;28;20044;-68
2023/08/24 02:14:29;;;;;;;8.50;7.32;;;;;;;20.18;64.30;96442.69;5054788;28;20568;-68
2023/08/24 02:16:56;;;;;;;13.95;8.82;;;;;;;20.18;64.41;96442.69;5054853;28;20041;-68
2023/08/24 02:19:25;;;;;;;9.77;7.75;;;;;;;20.14;64.60;96450.03;5054788;28;20092;-68
2023/08/24 02:21:52;;;;;;;15.57;8.88;;;;;;;20.05;64.87;96443.63;5054746;28;20072;-69
2023/08/24 02:24:19;;;;;;;9.15;8.35;;;;;;;20.05;64.98;96448.13;5054731;28;20060;-68
2023/08/24 02:26:46;;;;;;;9.35;8.15;;;;;;;20.00;65.58;96443.13;5054503;28;20548;-68
2023/08/24 02:29:13;;;;;;;13.80;8.20;;;;;;;19.97;65.75;96447.81;5054732;28;20128;-68
2023/08/24 02:31:40;;;;;;;9.43;8.15;;;;;;;19.94;65.35;96443.59;5054415;28;20523;-68
2023/08/24 02:34:08;;;;;;;10.30;8.50;;;;;;;19.88;65.88;96444.94;5054514;28;20087;-69
2023/08/24 02:36:36;;;;;;;9.20;8.30;;;;;;;19.86;65.97;96446.03;5054456;28;20103;-69
2023/08/24 02:39:05;;;;;;;10.10;8.77;;;;;;;19.80;66.14;96442.88;5054553;28;20049;-70
2023/08/24 02:41:31;;;;;;;10.52;8.13;;;;;;;19.80;66.22;96437.56;5054600;28;20045;-70
2023/08/24 02:43:58;;;;;;;9.25;8.45;;;;;;;19.78;65.92;96450.09;5054361;28;20041;-69
2023/08/24 02:46:25;;;;;;;10.55;7.97;;;;;;;19.79;66.02;96446.50;5054283;28;20450;-69
2023/08/24 02:48:52;;;;;;;9.38;8.50;;;;;;;19.74;66.23;96439.84;5054125;28;20045;-69
2023/08/24 02:51:22;;;;;;;11.38;8.48;;;;;;;19.68;66.00;96442.00;5054023;28;20141;-69
2023/08/24 02:53:51;;;;;;;9.18;8.35;;;;;;;19.65;66.41;96441.38;5054007;28;20122;-69
2023/08/24 02:56:18;;;;;;;10.48;8.75;;;;;;;19.63;66.61;96445.97;5053988;28;20465;-69
2023/08/24 02:58:45;;;;;;;10.65;9.52;;;;;;;19.57;67.21;96442.81;5054042;28;20076;-70
2023/08/24 03:01:12;;;;;;;9.38;8.35;;;;;;;19.59;67.05;96444.53;5053887;28;20494;-69
2023/08/24 03:03:39;;;;;;;9.38;8.45;;;;;;;19.62;66.97;96444.28;5054181;28;20044;-69
2023/08/24 03:06:07;;;;;;;10.05;8.32;;;;;;;19.61;66.78;96440.78;5053825;28;20059;-69
2023/08/24 03:08:35;;;;;;;9.48;8.50;;;;;;;19.61;66.93;96432.81;5053201;28;20041;-69
2023/08/24 03:11:04;;;;;;;12.38;8.40;;;;;;;19.61;67.15;96431.97;5053736;28;20128;-69
2023/08/24 03:13:32;;;;;;;9.57;8.68;;;;;;;19.56;66.99;96432.31;5053822;28;20406;-69
2023/08/24 03:16:03;;;;;;;9.93;8.93;;;;;;;19.54;66.92;96429.78;5053731;28;20080;-69
2023/08/24 03:18:30;;;;;;;12.13;9.13;;;;;;;19.50;67.09;96423.03;5053628;28;20048;-70
2023/08/24 03:20:57;;;;;;;9.95;8.95;;;;;;;19.42;67.53;96434.22;5053416;28;20136;-69
2023/08/24 03:23:24;;;;;;;10.45;8.50;;;;;;;19.39;67.52;96434.44;5053567;28;20056;-69
2023/08/24 03:25:51;;;;;;;10.10;9.20;;;;;;;19.38;67.84;96435.41;5053750;28;20628;-69
2023/08/24 03:28:20;;;;;;;10.10;9.20;;;;;;;19.34;67.87;96433.97;5053364;28;20562;-70
2023/08/24 03:30:48;;;;;;;10.93;9.27;;;;;;;19.30;68.03;96436.00;5053458;28;20045;-69
2023/08/24 03:33:15;;;;;;;18.02;9.30;;;;;;;19.32;68.00;96422.63;5053417;28;20053;-69
2023/08/24 03:35:43;;;;;;;9.32;8.48;;;;;;;19.22;68.73;96437.53;5053430;28;20048;-69
2023/08/24 03:38:10;;;;;;;10.15;8.93;;;;;;;19.20;68.68;96429.69;5053271;28;20060;-69
2023/08/24 03:40:37;;;;;;;11.05;9.88;;;;;;;19.26;68.76;96436.38;5053217;28;20502;-69
2023/08/24 03:43:05;;;;;;;10.93;9.52;;;;;;;19.30;68.55;96443.94;5053362;28;20040;-69
2023/08/24 03:45:33;;;;;;;10.80;9.63;;;;;;;19.33;68.95;96440.25;5053332;28;20049;-69
2023/08/24 03:48:00;;;;;;;10.30;9.30;;;;;;;19.34;68.67;96444.56;5053131;28;20045;-70
2023/08/24 03:50:27;;;;;;;9.82;8.75;;;;;;;19.40;68.71;96446.75;5053283;28;20430;-69
2023/08/24 03:52:55;;;;;;;10.48;9.23;;;;;;;19.41;68.32;96436.97;5053195;28;20045;-69
2023/08/24 03:55:22;;;;;;;11.68;9.20;;;;;;;19.48;68.12;96445.34;5053073;28;20060;-69
2023/08/24 03:57:49;;;;;;;10.15;9.05;;;;;;;19.56;68.28;96448.25;5053011;28;20458;-70
2023/08/24 04:00:17;;;;;;;11.68;9.23;;;;;;;19.66;68.12;96440.44;5053258;28;20045;-69
2023/08/24 04:02:45;;;;;;;11.80;9.68;;;;;;;19.73;68.08;96446.97;5052908;28;20502;-69
2023/08/24 04:05:13;;;;;;;10.10;9.00;;;;;;;19.73;68.01;96441.66;5053047;28;20414;-69
2023/08/24 04:07:41;;;;;;;10.68;8.98;;;;;;;19.75;68.09;96441.53;5053038;28;20481;-69
2023/08/24 04:10:09;;;;;;;11.63;9.23;;;;;;;19.83;67.84;96447.09;5052988;28;20048;-69
2023/08/24 04:12:36;;;;;;;9.68;8.77;;;;;;;20.01;67.94;96444.00;5052956;28;20049;-70
2023/08/24 04:15:04;;;;;;;9.63;8.50;;;;;;;20.23;66.79;96448.47;5052951;28;20053;-70
2023/08/24 04:17:32;;;;;;;10.43;9.40;;;;;;;20.46;66.47;96459.06;5052945;28;20049;-70
2023/08/24 04:20:00;;;;;;;9.10;8.20;;;;;;;20.75;65.53;96457.69;5052972;28;20049;-70
2023/08/24 04:22:27;;;;;;;12.13;9.20;;;;;;;21.05;64.48;96457.06;5057157;28;20106;-70
2023/08/24 04:24:54;;;;;;;9.45;8.55;;;;;;;21.33;63.82;96465.41;5057038;28;20135;-70
2023/08/24 04:27:21;;;;;;;9.18;7.45;;;;;;;21.65;62.86;96460.16;5056936;28;20088;-70
2023/08/24 04:29:49;;;;;;;9.10;8.20;;;;;;;21.97;62.15;96464.56;5056817;28;20478;-70
2023/08/24 04:32:15;;;;;;;12.73;8.52;;;;;;;;;;5056718;28;20059;-70
2023/08/24 04:34:43;;;;;;;9.18;8.30;;;;;;;22.48;60.58;96467.31;5056681;28;20049;-70
2023/08/24 04:37:11;;;;;;;9.02;8.23;;;;;;;22.85;59.92;96473.91;5056807;28;20115;-70
2023/08/24 04:39:38;;;;;;;9.90;7.63;;;;;;;23.22;58.42;96472.41;5056783;28;20049;-70
2023/08/24 04:42:06;;;;;;;10.90;7.57;;;;;;;23.62;57.58;96467.09;5056572;28;20052;-70
2023/08/24 04:44:33;;;;;;;8.52;7.68;;;;;;;23.93;57.06;96458.91;5056478;28;20570;-70
2023/08/24 04:47:00;;;;;;;7.90;7.07;;;;;;;24.28;55.90;96472.56;5056747;28;20420;-70
2023/08/24 04:49:28;;;;;;;8.63;7.70;;;;;;;24.64;54.66;96467.34;5056424;28;20057;-70
2023/08/24 04:51:56;;;;;;;8.35;7.60;;;;;;;25.02;54.92;96464.63;5056453;28;20479;-69
2023/08/24 04:54:24;;;;;;;10.10;8.10;;;;;;;25.41;51.82;96468.00;5056340;28;20092;-69
2023/08/24 04:56:51;;;;;;;9.82;7.45;;;;;;;25.73;51.44;96471.94;5056344;28;20445;-70
2023/08/24 04:59:21;;;;;;;9.90;7.25;;;;;;;26.19;52.20;96471.75;5056224;28;20055;-70
2023/08/24 05:01:48;;;;;;;8.15;7.22;;;;;;;26.66;51.01;96471.53;5056306;28;20041;-69
2023/08/24 05:04:16;;;;;;;8.80;7.90;;;;;;;27.10;50.33;96481.22;5056051;28;20438;-70
2023/08/24 05:06:46;;;;;;;7.75;7.03;;;;;;;27.42;48.28;96470.69;5056168;28;20045;-69
2023/08/24 05:09:14;;;;;;;8.10;7.30;;;;;;;27.55;47.38;96476.41;5056131;28;20045;-70
2023/08/24 05:11:42;;;;;;;10.88;6.80;;;;;;;27.72;47.45;96479.94;5056116;28;20424;-69
2023/08/24 05:14:09;;;;;;;7.72;6.93;;;;;;;27.90;48.60;96484.28;5055957;28;20486;-70
2023/08/24 05:16:37;;;;;;;9.68;7.13;;;;;;;27.94;45.48;96485.66;5055933;28;20487;-70
2023/08/24 05:19:04;;;;;;;8.40;7.60;;;;;;;27.81;46.15;96485.34;5055912;28;20048;-69
2023/08/24 05:21:32;;;;;;;10.43;7.07;;;;;;;27.61;47.12;96485.63;5055606;28;20048;-69
2023/08/24 05:23:59;;;;;;;8.25;7.20;;;;;;;27.87;49.43;96492.69;5055932;28;20099;-70
2023/08/24 05:26:26;;;;;;;8.27;6.63;;;;;;;28.37;49.97;96490.81;5055950;28;20083;-69
2023/08/24 05:28:55;;;;;;;7.50;6.68;;;;;;;28.92;48.04;96490.06;5055730;28;20135;-70
2023/08/24 05:31:22;;;;;;;8.38;7.20;;;;;;;29.40;45.20;96497.22;5055135;28;20041;-70
2023/08/24 05:33:49;;;;;;;8.05;7.25;;;;;;;29.86;45.75;96490.16;5055791;28;20124;-70
2023/08/24 05:36:16;;;;;;;7.15;6.55;;;;;;;30.38;43.50;96487.66;5055763;28;20041;-70
2023/08/24 05:38:46;;;;;;;9.98;6.40;;;;;;;30.91;45.45;96494.78;5055661;28;20423;-70
2023/08/24 05:41:14;;;;;;;8.50;6.97;;;;;;;31.39;45.89;96496.16;5055644;28;20106;-70
2023/08/24 05:43:42;;;;;;;9.45;6.88;;;;;;;31.78;44.70;96496.72;5055458;28;20048;-69
2023/08/24 05:46:10;;;;;;;14.43;7.28;;;;;;;32.17;42.78;96499.97;5055437;28;20135;-70
2023/08/24 05:48:37;;;;;;;6.75;6.07;;;;;;;32.54;42.22;96499.84;5055432;28;20045;-69
2023/08/24 05:51:06;;;;;;;7.97;6.95;;;;;;;32.89;42.27;96491.66;5055540;28;20083;-70
2023/08/24 05:53:33;;;;;;;7.38;6.65;;;;;;;33.26;40.04;96499.50;5055361;28;20041;-69
2023/08/24 05:56:00;;;;;;;7.93;6.07;;;;;;;33.53;37.58;96494.16;5055204;28;20053;-70
2023/08/24 05:58:27;;;;;;;7.65;6.88;;;;;;;33.78;35.85;96490.88;5055084;28;20518;-69
2023/08/24 06:00:59;;;;;;;9.90;6.97;;;;;;;33.97;33.64;96492.94;5055090;28;20057;-69
2023/08/24 06:03:28;;;;;;;9.30;7.10;;;;;;;34.06;33.15;96490.84;5055041;28;20547;-69
2023/08/24 06:05:55;;;;;;;9.13;7.07;;;;;;;34.34;34.61;96493.34;5055082;28;20045;-69
2023/08/24 06:08:23;;;;;;;10.05;7.25;;;;;;;34.59;33.06;96497.25;5055212;28;20045;-69
2023/08/24 06:10:50;;;;;;;10.75;7.75;;;;;;;34.70;32.16;96495.81;5055228;28;20041;-69
2023/08/24 06:13:17;;;;;;;10.18;7.07;;;;;;;34.93;34.15;96498.00;5054934;28;20145;-69
2023/08/24 06:15:44;;;;;;;9.32;7.60;;;;;;;34.98;32.88;96494.66;5054813;28;20137;-69
2023/08/24 06:18:11;;;;;;;7.20;6.55;;;;;;;35.13;31.46;96497.94;5055117;28;20045;-70
2023/08/24 06:20:39;;;;;;;7.68;6.80;;;;;;;35.36;31.42;96498.47;5054739;28;20041;-69
2023/08/24 06:23:07;;;;;;;13.02;7.20;;;;;;;35.53;32.72;96499.59;5054841;28;20087;-69
2023/08/24 06:25:34;;;;;;;7.30;6.45;;;;;;;35.74;30.89;96502.19;5054614;28;20048;-69
2023/08/24 06:28:03;;;;;;;9.55;6.63;;;;;;;35.90;30.54;96504.38;5054611;28;20048;-69
2023/08/24 06:30:32;;;;;;;8.10;6.77;;;;;;;35.79;32.33;96505.09;5054588;28;20110;-69
2023/08/24 06:32:59;;;;;;;7.35;6.32;;;;;;;35.69;33.73;96502.84;5054358;28;20136;-69
2023/08/24 06:35:26;;;;;;;9.02;6.55;;;;;;;35.71;32.65;96506.19;5054438;28;20053;-69
2023/08/24 06:37:55;;;;;;;8.25;6.60;;;;;;;35.78;31.77;96504.25;5054550;28;20384;-69
2023/08/24 06:40:22;;;;;;;9.82;5.88;;;;;;;35.71;31.10;96505.34;5054545;28;20045;-69
2023/08/24 06:42:50;;;;;;;6.20;5.60;;;;;;;35.95;30.88;96502.88;5053531;28;20107;-69
2023/08/24 06:45:19;;;;;;;11.05;5.70;;;;;;;36.26;28.46;96507.44;5054207;28;20048;-69
2023/08/24 06:47:46;;;;;;;8.88;6.07;;;;;;;36.19;28.07;96497.63;5054266;28;20049;-69
2023/08/24 06:50:13;;;;;;;6.93;5.78;;;;;;;35.95;29.32;96500.97;5054252;28;20059;-69
2023/08/24 06:52:40;;;;;;;8.60;5.97;;;;;;;36.14;30.01;96510.03;5054084;28;20049;-69
2023/08/24 06:55:11;;;;;;;7.00;5.95;;;;;;;35.88;29.67;96511.09;5053926;28;20080;-69
2023/08/24 06:57:39;;;;;;;7.80;6.15;;;;;;;36.01;29.85;96505.53;5053969;28;20477;-69
2023/08/24 07:00:14;;;;;;;9.07;5.78;;;;;;;36.38;28.25;96512.97;5054125;28;20510;-69
2023/08/24 07:02:41;;;;;;;9.48;6.13;;;;;;;36.59;28.45;96515.50;5053968;28;20110;-68
2023/08/24 07:05:09;;;;;;;9.18;5.50;;;;;;;36.61;26.61;96505.19;5053897;28;20048;-69
2023/08/24 07:07:36;;;;;;;7.88;5.57;;;;;;;36.57;28.51;96514.88;5053881;28;20128;-69
2023/08/24 07:10:06;;;;;;;6.78;6.07;;;;;;;36.12;27.95;96512.13;5054020;28;20045;-68
2023/08/24 07:12:34;;;;;;;6.20;5.60;;;;;;;35.93;27.27;96516.69;5053770;28;20514;-69
2023/08/24 07:15:02;;;;;;;10.00;6.40;;;;;;;35.74;27.54;96516.63;5053602;28;20099;-69
2023/08/24 07:17:29;;;;;;;8.77;5.90;;;;;;;35.77;28.05;96513.47;5053593;28;20045;-69
2023/08/24 07:19:57;;;;;;;7.28;5.88;;;;;;;35.77;27.71;96508.03;5053492;28;20384;-69
2023/08/24 07:22:26;;;;;;;8.90;5.50;;;;;;;35.46;27.54;96514.28;5053602;28;20049;-69
2023/08/24 07:24:53;;;;;;;10.30;5.63;;;;;;;35.22;27.65;96505.84;5053589;28;20087;-69
2023/08/24 07:27:21;;;;;;;6.00;5.50;;;;;;;35.36;28.25;96493.03;5053676;28;20099;-68
2023/08/24 07:29:50;;;;;;;6.90;6.20;;;;;;;34.98;28.41;96500.94;5053339;28;20045;-68
2023/08/24 07:32:17;;;;;;;8.55;5.80;;;;;;;34.52;29.38;96508.16;5053503;28;20084;-68
2023/08/24 07:34:45;;;;;;;10.45;6.25;;;;;;;33.84;30.35;96497.34;5053377;28;20049;-68
2023/08/24 07:37:13;;;;;;;6.82;6.13;;;;;;;34.02;31.04;96504.00;5053254;28;20048;-69
2023/08/24 07:39:40;;;;;;;6.28;5.60;;;;;;;34.34;30.21;96493.34;5053362;28;20511;-68
2023/08/24 07:42:08;;;;;;;10.55;5.60;;;;;;;34.75;30.99;96499.53;5053252;28;20136;-68
2023/08/24 07:44:35;;;;;;;8.93;6.18;;;;;;;35.12;28.33;96498.16;5053174;28;20479;-69
2023/08/24 07:47:04;;;;;;;7.13;6.03;;;;;;;35.24;29.61;96501.03;5053119;28;20049;-68
2023/08/24 07:49:32;;;;;;;11.00;5.45;;;;;;;35.47;27.59;96491.47;5053287;28;20044;-69
2023/08/24 07:51:59;;;;;;;6.40;5.32;;;;;;;35.74;26.79;96492.16;5053040;28;20053;-68
2023/08/24 07:54:27;;;;;;;8.18;5.30;;;;;;;36.04;26.79;96491.50;5053116;28;20490;-69
2023/08/24 07:56:54;;;;;;;9.38;5.55;;;;;;;36.33;25.75;96499.22;5053058;28;20075;-68
2023/08/24 07:59:21;;;;;;;5.72;5.07;;;;;;;36.51;26.29;96509.25;5052945;28;20509;-68
2023/08/24 08:01:48;;;;;;;8.50;4.40;;;;;;;36.77;26.44;96510.06;5053076;28;20049;-68
2023/08/24 08:04:17;;;;;;;5.32;4.00;;;;;;;36.67;25.01;96510.56;5052958;28;20406;-68
2023/08/24 08:06:44;;;;;;;5.68;4.45;;;;;;;36.49;25.08;96507.84;5052991;28;20098;-68
2023/08/24 08:09:12;;;;;;;6.20;4.35;;;;;;;36.06;25.47;96512.19;5053054;28;20487;-68
2023/08/24 08:11:39;;;;;;;5.53;4.38;;;;;;;35.56;26.28;96500.19;5053046;28;20497;-68
2023/08/24 08:14:07;;;;;;;6.40;4.47;;;;;;;35.19;28.73;96498.97;5052654;28;20414;-68
2023/08/24 08:16:34;;;;;;;5.50;4.80;;;;;;;34.91;28.11;96503.66;5052945;28;20052;-68
2023/08/24 08:19:02;;;;;;;5.72;4.30;;;;;;;34.63;27.58;96509.34;5052965;28;20110;-68
2023/08/24 08:21:30;;;;;;;5.15;3.95;;;;;;;34.06;28.53;96504.41;5052646;28;20045;-68
2023/08/24 08:23:57;;;;;;;5.57;4.03;;;;;;;33.45;28.40;96504.34;5052744;28;20438;-68
2023/08/24 08:26:25;;;;;;;5.30;4.40;;;;;;;33.15;29.46;96505.53;5052799;28;20102;-68
2023/08/24 08:28:52;;;;;;;4.45;4.00;;;;;;;32.75;30.24;96504.31;5052660;28;20060;-68
2023/08/24 08:31:19;;;;;;;5.13;4.45;;;;;;;32.75;30.95;96504.31;5052697;28;20090;-68
2023/08/24 08:33:46;;;;;;;5.60;4.90;;;;;;;32.75;31.74;96495.38;5052772;28;20110;-68
2023/08/24 08:36:14;;;;;;;6.20;4.00;;;;;;;32.82;30.87;96495.38;5052683;28;20052;-68
2023/08/24 08:38:43;;;;;;;11.55;4.55;;;;;;;32.67;31.08;96493.66;5052643;28;20049;-68
2023/08/24 08:41:11;;;;;;;6.82;5.00;;;;;;;32.69;31.54;96488.88;5052626;28;20053;-68
2023/08/24 08:43:40;;;;;;;9.20;4.28;;;;;;;32.82;32.63;96488.09;5052672;28;20041;-68
2023/08/24 08:46:08;;;;;;;7.37;4.50;;;;;;;32.82;31.59;96484.56;5052790;28;20508;-68
2023/08/24 08:48:36;;;;;;;6.35;4.70;;;;;;;32.71;31.31;96478.69;5052606;28;20041;-68
2023/08/24 08:51:04;;;;;;;5.05;4.55;;;;;;;32.51;30.80;96478.59;5052648;28;20132;-68
2023/08/24 08:53:33;;;;;;;4.28;3.97;;;;;;;32.56;30.22;96486.94;5052468;28;20135;-68
2023/08/24 08:56:04;;;;;;;4.70;4.30;;;;;;;32.43;30.10;96481.41;5052608;28;20557;-68
2023/08/24 08:58:33;;;;;;;5.43;4.40;;;;;;;32.36;30.83;96489.50;5052594;28;20273;-68
2023/08/24 09:01:03;;;;;;;4.00;3.63;;;;;;;32.28;31.16;96488.63;5052531;28;20053;-68
2023/08/24 09:03:32;;;;;;;5.05;4.05;;;;;;;32.22;31.03;96484.00;5052784;28;20053;-68
2023/08/24 09:05:59;;;;;;;4.05;3.40;;;;;;;32.03;30.72;96482.84;5052683;28;20114;-68
2023/08/24 09:08:27;;;;;;;3.42;3.13;;;;;;;31.90;30.87;96475.41;5056193;28;20056;-68
2023/08/24 09:10:55;;;;;;;4.82;3.40;;;;;;;31.78;30.78;96473.25;5056076;28;20049;-68
2023/08/24 09:13:24;;;;;;;3.42;3.13;;;;;;;31.59;30.52;96476.63;5055955;28;20049;-68
2023/08/24 09:15:53;;;;;;;5.07;3.10;;;;;;;31.24;32.15;96471.91;5056253;28;20384;-68
2023/08/24 09:18:22;;;;;;;2.90;2.70;;;;;;;31.01;30.96;96476.44;5056026;28;20503;-68
2023/08/24 09:20:49;;;;;;;4.97;2.90;;;;;;;30.94;31.41;96470.09;5055688;28;20079;-68
2023/08/24 09:23:20;;;;;;;3.47;2.92;;;;;;;30.88;32.09;96468.19;5055922;28;20045;-68
2023/08/24 09:25:48;;;;;;;4.10;3.03;;;;;;;30.88;31.71;96466.31;5055736;28;20091;-68
2023/08/24 09:28:23;;;;;;;5.47;3.13;;;;;;;31.12;31.88;96471.56;5055735;28;20041;-68
2023/08/24 09:30:54;;;;;;;5.85;2.90;;;;;;;31.24;31.25;96472.72;5055656;28;20123;-68
2023/08/24 09:33:25;;;;;;;4.97;3.20;;;;;;;31.43;32.15;96473.16;5055681;28;20057;-68
2023/08/24 09:35:55;;;;;;;3.55;3.28;;;;;;;31.59;31.68;96465.81;5055772;28;20087;-68
2023/08/24 09:38:24;;;;;;;5.45;3.70;;;;;;;31.71;31.30;96466.97;5055537;28;20053;-68
2023/08/24 09:40:52;;;;;;;4.57;3.00;;;;;;;31.94;30.64;96460.53;5055522;28;20095;-69
2023/08/24 09:43:20;;;;;;;3.47;3.17;;;;;;;32.14;31.69;96462.50;5055482;28;20072;-68
2023/08/24 09:45:53;;;;;;;5.68;3.67;;;;;;;32.19;30.82;96454.66;5055421;28;20045;-68
2023/08/24 09:48:21;;;;;;;7.43;4.18;;;;;;;32.27;30.79;96443.66;5055575;28;20048;-68
2023/08/24 09:50:51;;;;;;;7.70;4.55;;;;;;;32.35;30.37;96445.38;5055293;28;20052;-68
2023/08/24 09:53:20;;;;;;;8.32;4.53;;;;;;;32.39;30.33;96448.53;5055405;28;20052;-68
2023/08/24 09:55:54;;;;;;;4.60;4.20;;;;;;;32.38;31.18;96447.69;5055434;28;20127;-68
2023/08/24 09:58:22;;;;;;;6.00;4.60;;;;;;;32.58;31.52;96440.72;5055219;28;20494;-68
2023/08/24 10:00:51;;;;;;;13.48;4.68;;;;;;;32.89;29.87;96440.22;5055153;28;20487;-68
2023/08/24 10:03:21;;;;;;;5.10;4.63;;;;;;;33.07;30.54;96449.66;5055175;28;20407;-68
2023/08/24 10:05:54;;;;;;;5.15;4.75;;;;;;;33.09;29.75;96442.19;5055085;28;20132;-68
2023/08/24 10:08:25;;;;;;;5.57;4.78;;;;;;;33.10;30.54;96445.72;5055033;28;20056;-68
2023/08/24 10:10:56;;;;;;;7.20;4.72;;;;;;;33.22;30.16;96441.38;5055039;28;20049;-69
2023/08/24 10:13:24;;;;;;;;;;;;;;;33.43;30.38;96436.81;5055280;28;20045;-68
2023/08/24 10:15:55;;;;;;;5.63;4.50;;;;;;;33.64;30.03;96430.41;5054782;28;19925;-68
2023/08/24 10:18:24;;;;;;;5.55;4.97;;;;;;;33.78;28.05;96423.09;5054784;28;20132;-68
2023/08/24 10:20:54;;;;;;;6.75;5.03;;;;;;;33.90;28.62;96422.47;5054617;28;20052;-68
2023/08/24 10:23:21;;;;;;;10.80;5.28;;;;;;;33.92;29.46;96420.38;5054708;28;20048;-68
2023/08/24 10:25:52;;;;;;;7.45;4.65;;;;;;;33.87;29.53;96415.59;5054790;28;20049;-68
2023/08/24 10:28:21;;;;;;;6.35;4.80;;;;;;;33.69;28.97;96410.78;5054547;28;20479;-68
2023/08/24 10:30:51;;;;;;;5.60;4.53;;;;;;;33.60;30.29;96415.59;5054679;28;20495;-68
2023/08/24 10:33:21;;;;;;;7.50;4.65;;;;;;;33.46;30.80;96413.88;5054618;28;20084;-68
2023/08/24 10:35:49;;;;;;;;;;;;;;;33.44;29.64;96413.28;5055266;28;20045;-68
2023/08/24 10:38:28;;;;;;;8.82;5.15;;;;;;;33.26;30.11;96406.59;5054489;28;19975;-68
2023/08/24 10:40:56;;;;;;;5.75;4.82;;;;;;;33.14;30.01;96411.78;5054360;28;20091;-68
2023/08/24 10:43:25;;;;;;;10.02;5.60;;;;;;;33.15;30.94;96400.75;5054605;28;20056;-68
2023/08/24 10:46:00;;;;;;;8.43;5.30;;;;;;;33.10;31.18;96395.09;5054279;28;20056;-68
2023/08/24 10:48:30;;;;;;;8.10;5.38;;;;;;;33.15;30.53;96392.63;5054137;28;20053;-68
2023/08/24 10:51:22;;;;;;;5.68;5.10;;;;;;;33.22;29.52;96384.50;5054321;28;20102;-68
2023/08/24 10:53:53;;;;;;;6.70;4.95;;;;;;;33.31;31.98;96384.31;5054073;28;20048;-68
2023/08/24 10:56:21;;;;;;;6.22;5.40;;;;;;;33.46;33.75;96378.66;5054434;28;20045;-68
2023/08/24 10:59:10;;;;;;;8.13;5.28;;;;;;;33.47;30.70;96377.63;5054111;28;20056;-68
2023/08/24 11:01:40;;;;;;;6.00;5.40;;;;;;;33.52;30.29;96365.09;5054010;28;20487;-68
2023/08/24 11:04:10;;;;;;;5.90;4.80;;;;;;;33.59;28.86;96364.31;5053970;28;20140;-69
2023/08/24 11:06:53;;;;;;;5.50;4.80;;;;;;;33.78;28.59;96351.78;5053884;28;20041;-68
2023/08/24 11:09:20;;;;;;;6.90;5.38;;;;;;;34.10;28.99;96345.66;5053885;28;20083;-68
2023/08/24 11:11:59;;;;;;;9.75;4.82;;;;;;;34.49;26.88;96334.88;5053924;28;20483;-68
2023/08/24 11:14:28;;;;;;;6.30;5.47;;;;;;;34.73;27.78;96333.28;5053691;28;20132;-69
2023/08/24 11:16:58;;;;;;;6.17;5.27;;;;;;;35.03;28.08;96331.84;5053690;28;20501;-69
2023/08/24 11:19:30;;;;;;;7.63;5.38;;;;;;;35.16;26.35;96322.78;5053463;28;20079;-68
2023/08/24 11:21:58;;;;;;;5.63;4.72;;;;;;;35.19;26.04;96324.25;5053682;28;20477;-68
2023/08/24 11:24:28;;;;;;;11.23;5.43;;;;;;;35.32;25.54;96320.56;5053510;28;20135;-68
2023/08/24 11:27:04;;;;;;;7.72;5.20;;;;;;;35.53;26.60;96316.63;5053427;28;20076;-68
2023/08/24 11:29:31;;;;;;;5.65;5.10;;;;;;;35.65;24.41;96309.41;5053043;28;20544;-69
2023/08/24 11:32:02;;;;;;;6.05;4.43;;;;;;;35.64;24.83;96305.00;5053419;28;20045;-68
2023/08/24 11:34:32;;;;;;;9.35;5.10;;;;;;;35.62;23.84;96295.41;5053040;28;20075;-69
2023/08/24 11:37:00;;;;;;;11.30;5.22;;;;;;;35.48;24.49;96292.00;5053374;28;20110;-68